createdAt,value
2023-04-10T00:01:36.368Z,103156.59
2023-04-10T00:04:44.168Z,103153.19
2023-04-10T00:07:50.710Z,103153.31
2023-04-10T00:10:57.090Z,103144.81
2023-04-10T00:14:01.980Z,103147.19
2023-04-10T00:17:08.435Z,103147.75
2023-04-10T00:20:15.437Z,103145.66
2023-04-10T00:23:20.305Z,103145.00
2023-04-10T00:26:26.887Z,103139.75
2023-04-10T00:29:31.785Z,103146.00
2023-04-10T00:32:37.908Z,103138.53
2023-04-10T00:35:43.290Z,103139.91
2023-04-10T00:38:48.588Z,103147.84
2023-04-10T00:41:53.360Z,103154.97
2023-04-10T00:44:58.110Z,103148.78
2023-04-10T00:48:04.302Z,103147.19
2023-04-10T00:51:10.156Z,103151.41
2023-04-10T00:54:14.923Z,103154.75
2023-04-10T00:57:19.621Z,103160.44
2023-04-10T01:00:24.361Z,103143.53
2023-04-10T01:03:30.651Z,103151.81
2023-04-10T01:06:38.124Z,103150.16
2023-04-10T01:09:43.401Z,103147.41
2023-04-10T01:12:52.728Z,103144.50
2023-04-10T01:15:59.320Z,103144.56
2023-04-10T01:19:06.527Z,103146.22
2023-04-10T01:22:13.778Z,103142.69
2023-04-10T01:25:29.880Z,103148.34
2023-04-10T01:28:52.797Z,103142.75
2023-04-10T01:31:59.859Z,103136.84
2023-04-10T01:35:06.094Z,103141.41
2023-04-10T01:38:12.601Z,103144.81
2023-04-10T01:41:17.513Z,103146.38
2023-04-10T01:44:23.226Z,103140.75
2023-04-10T01:47:30.547Z,103138.75
2023-04-10T01:50:35.297Z,103139.78
2023-04-10T01:53:40.713Z,103144.00
2023-04-10T01:56:45.609Z,103148.28
2023-04-10T01:59:53.157Z,103143.13
2023-04-10T02:02:59.624Z,103146.28
2023-04-10T02:06:08.287Z,103138.91
2023-04-10T02:09:14.164Z,103146.84
2023-04-10T02:12:20.187Z,103135.34
2023-04-10T02:15:26.699Z,103134.34
2023-04-10T02:18:33.318Z,103137.50
2023-04-10T02:21:39.924Z,103125.94
2023-04-10T02:24:45.146Z,103131.19
2023-04-10T02:27:49.836Z,103134.06
2023-04-10T02:30:54.671Z,103136.38
2023-04-10T02:34:00.856Z,103133.06
2023-04-10T02:37:05.520Z,103139.25
2023-04-10T02:40:12.203Z,103134.84
2023-04-10T02:43:25.520Z,103133.16
2023-04-10T02:46:30.785Z,103133.41
2023-04-10T02:49:37.638Z,103136.00
2023-04-10T02:52:49.480Z,103128.38
2023-04-10T02:55:54.797Z,103131.03
2023-04-10T02:58:59.656Z,103126.00
2023-04-10T03:02:04.656Z,103127.28
2023-04-10T03:05:14.431Z,103124.00
2023-04-10T03:08:19.715Z,103122.47
2023-04-10T03:11:25.197Z,103124.72
2023-04-10T03:14:29.927Z,103129.75
2023-04-10T03:17:35.118Z,103121.69
2023-04-10T03:20:43.127Z,103126.47
2023-04-10T03:23:49.355Z,103124.44
2023-04-10T03:26:54.634Z,103133.69
2023-04-10T03:29:59.393Z,103134.06
2023-04-10T03:33:04.871Z,103132.38
2023-04-10T03:36:12.226Z,103121.34
2023-04-10T03:39:17.217Z,103124.72
2023-04-10T03:42:21.648Z,103128.56
2023-04-10T03:45:26.400Z,103121.41
2023-04-10T03:48:32.129Z,103128.44
2023-04-10T03:51:38.887Z,103125.28
2023-04-10T03:54:43.638Z,103123.84
2023-04-10T03:58:00.240Z,103129.16
2023-04-10T04:01:06.320Z,103123.50
2023-04-10T04:04:18.763Z,103119.25
2023-04-10T04:07:25.346Z,103123.78
2023-04-10T04:10:38.913Z,103121.13
2023-04-10T04:14:01.083Z,103127.16
2023-04-10T04:17:25.246Z,103114.22
2023-04-10T04:20:42.243Z,103122.34
2023-04-10T04:23:55.740Z,103112.94
2023-04-10T04:27:10.059Z,103113.44
2023-04-10T04:30:40.953Z,103125.63
2023-04-10T04:34:13.825Z,103126.88
2023-04-10T04:37:37.450Z,103128.59
2023-04-10T04:41:04.996Z,103121.78
2023-04-10T04:44:22.371Z,103131.69
2023-04-10T04:47:38.431Z,103130.88
2023-04-10T04:50:55.471Z,103136.06
2023-04-10T04:54:35.970Z,103131.25
2023-04-10T04:57:56.750Z,103135.59
2023-04-10T05:01:24.057Z,103134.78
2023-04-10T05:04:52.004Z,103145.94
2023-04-10T05:08:15.932Z,103145.44
2023-04-10T05:11:33.246Z,103138.09
2023-04-10T05:15:14.694Z,103139.94
2023-04-10T05:18:26.464Z,103141.19
2023-04-10T05:21:51.403Z,103134.03
2023-04-10T05:25:35.635Z,103140.59
2023-04-10T05:28:56.293Z,103132.66
2023-04-10T05:32:08.539Z,103125.69
2023-04-10T05:35:22.857Z,103124.66
2023-04-10T05:38:54.260Z,103124.31
2023-04-10T05:42:13.473Z,103124.19
2023-04-10T05:45:28.721Z,103122.97
2023-04-10T05:48:59.130Z,103117.00
2023-04-10T05:52:32.763Z,103117.53
2023-04-10T05:56:02.057Z,103120.84
2023-04-10T05:59:27.036Z,103111.06
2023-04-10T06:02:38.522Z,103104.03
2023-04-10T06:05:47.166Z,103113.44
2023-04-10T06:08:52.413Z,103110.38
2023-04-10T06:11:57.892Z,103111.25
2023-04-10T06:15:04.474Z,103106.88
2023-04-10T06:18:13.981Z,103098.50
2023-04-10T06:21:20.454Z,103091.84
2023-04-10T06:24:25.926Z,103095.53
2023-04-10T06:27:33.436Z,103099.25
2023-04-10T06:30:38.518Z,103084.16
2023-04-10T06:33:45.516Z,103089.50
2023-04-10T06:36:52.718Z,103086.63
2023-04-10T06:40:05.369Z,103095.63
2023-04-10T06:43:11.628Z,103081.34
2023-04-10T06:46:17.921Z,103082.16
2023-04-10T06:49:23.135Z,103072.00
2023-04-10T06:52:29.341Z,103064.53
2023-04-10T06:55:37.655Z,103069.69
2023-04-10T06:58:42.883Z,103069.22
2023-04-10T07:01:48.018Z,103064.25
2023-04-10T07:04:53.756Z,103060.53
2023-04-10T07:08:00.306Z,103062.09
2023-04-10T07:11:05.446Z,103060.53
2023-04-10T07:14:12.848Z,103061.28
2023-04-10T07:17:17.966Z,103062.00
2023-04-10T07:20:23.051Z,103053.97
2023-04-10T07:23:29.495Z,103063.94
2023-04-10T07:26:34.699Z,103057.44
2023-04-10T07:29:39.846Z,103063.47
2023-04-10T07:32:47.037Z,103059.44
2023-04-10T07:35:52.442Z,103056.94
2023-04-10T07:38:58.899Z,103062.72
2023-04-10T07:42:04.004Z,103070.88
2023-04-10T07:45:10.374Z,103065.19
2023-04-10T07:48:16.326Z,103068.88
2023-04-10T07:51:21.360Z,103057.56
2023-04-10T07:54:27.867Z,103058.09
2023-04-10T07:57:33.287Z,103064.72
2023-04-10T08:00:38.609Z,103058.41
2023-04-10T08:03:44.978Z,103064.25
2023-04-10T08:06:50.635Z,103057.56
2023-04-10T08:09:57.193Z,103059.25
2023-04-10T08:13:02.258Z,103055.38
2023-04-10T08:16:08.350Z,103049.31
2023-04-10T08:19:13.404Z,103058.34
2023-04-10T08:22:18.431Z,103055.97
2023-04-10T08:25:25.155Z,103056.03
2023-04-10T08:28:30.139Z,103050.00
2023-04-10T08:31:35.856Z,103052.97
2023-04-10T08:34:41.011Z,103048.78
2023-04-10T08:37:49.906Z,103038.19
2023-04-10T08:41:00.101Z,103057.78
2023-04-10T08:44:09.116Z,103046.69
2023-04-10T08:47:15.745Z,103048.63
2023-04-10T08:50:21.948Z,103045.25
2023-04-10T08:53:27.032Z,103035.31
2023-04-10T08:56:35.038Z,103025.13
2023-04-10T08:59:40.093Z,103028.19
2023-04-10T09:02:45.426Z,103033.91
2023-04-10T09:05:50.795Z,103024.88
2023-04-10T09:08:56.057Z,103018.06
2023-04-10T09:12:04.335Z,103023.59
2023-04-10T09:15:11.714Z,103004.91
2023-04-10T09:18:34.032Z,103012.06
2023-04-10T09:21:39.124Z,103022.75
2023-04-10T09:24:45.365Z,103012.66
2023-04-10T09:28:02.644Z,103016.75
2023-04-10T09:31:30.625Z,103015.00
2023-04-10T09:34:35.812Z,103011.91
2023-04-10T09:37:42.602Z,103010.06
2023-04-10T09:40:48.329Z,102998.22
2023-04-10T09:44:08.114Z,102986.63
2023-04-10T09:47:21.584Z,102991.94
2023-04-10T09:50:39.567Z,102985.97
2023-04-10T09:53:51.255Z,102984.50
2023-04-10T09:56:56.801Z,102978.50
2023-04-10T10:00:04.364Z,102975.16
2023-04-10T10:03:17.901Z,102978.22
2023-04-10T10:06:23.328Z,102979.88
2023-04-10T10:09:29.907Z,102969.59
2023-04-10T10:12:42.175Z,102963.03
2023-04-10T10:15:53.679Z,102971.59
2023-04-10T10:19:06.543Z,102972.50
2023-04-10T10:22:12.136Z,102955.69
2023-04-10T10:25:17.263Z,102956.69
2023-04-10T10:28:23.065Z,102964.25
2023-04-10T10:31:32.607Z,102959.94
2023-04-10T10:34:39.076Z,102949.66
2023-04-10T10:37:45.954Z,102942.94
2023-04-10T10:40:56.222Z,102952.44
2023-04-10T10:44:08.299Z,102923.81
2023-04-10T10:47:19.611Z,102936.53
2023-04-10T10:50:26.095Z,102927.19
2023-04-10T10:53:38.890Z,102921.44
2023-04-10T10:56:44.261Z,102915.69
2023-04-10T10:59:58.429Z,102908.75
2023-04-10T11:03:31.261Z,102907.97
2023-04-10T11:06:53.203Z,102898.75
2023-04-10T11:09:58.295Z,102893.53
2023-04-10T11:13:19.744Z,102893.59
2023-04-10T11:16:26.357Z,102896.97
2023-04-10T11:19:31.397Z,102893.69
2023-04-10T11:23:11.307Z,102890.25
2023-04-10T11:26:16.593Z,102883.50
2023-04-10T11:29:37.011Z,102886.06
2023-04-10T11:32:43.328Z,102884.28
2023-04-10T11:35:48.546Z,102870.81
2023-04-10T11:38:59.048Z,102880.91
2023-04-10T11:42:05.838Z,102875.84
2023-04-10T11:45:29.169Z,102870.75
2023-04-10T11:48:34.587Z,102871.72
2023-04-10T11:51:40.343Z,102872.44
2023-04-10T11:54:51.676Z,102866.75
2023-04-10T11:57:56.738Z,102859.06
2023-04-10T12:01:03.535Z,102857.38
2023-04-10T12:04:17.200Z,102850.56
2023-04-10T12:07:27.517Z,102852.19
2023-04-10T12:10:47.010Z,102830.03
2023-04-10T12:13:55.276Z,102850.31
2023-04-10T12:17:00.473Z,102837.56
2023-04-10T12:20:06.380Z,102837.72
2023-04-10T12:23:12.493Z,102827.50
2023-04-10T12:26:19.715Z,102827.53
2023-04-10T12:29:28.833Z,102820.69
2023-04-10T12:32:34.746Z,102818.13
2023-04-10T12:35:40.233Z,102813.88
2023-04-10T12:38:46.107Z,102812.03
2023-04-10T12:41:52.554Z,102812.84
2023-04-10T12:44:58.939Z,102804.44
2023-04-10T12:48:03.981Z,102799.31
2023-04-10T12:51:09.465Z,102797.53
2023-04-10T12:54:28.177Z,102805.19
2023-04-10T12:57:34.702Z,102795.97
2023-04-10T13:00:39.774Z,102796.00
2023-04-10T13:03:46.742Z,102778.03
2023-04-10T13:06:53.245Z,102781.38
2023-04-10T13:09:58.778Z,102772.88
2023-04-10T13:13:07.167Z,102772.19
2023-04-10T13:16:14.554Z,102773.75
2023-04-10T13:19:19.722Z,102765.38
2023-04-10T13:22:24.946Z,102763.53
2023-04-10T13:25:29.944Z,102760.28
2023-04-10T13:28:36.481Z,102757.81
2023-04-10T13:31:41.612Z,102748.38
2023-04-10T13:34:46.798Z,102749.19
2023-04-10T13:37:54.353Z,102742.41
2023-04-10T13:40:59.365Z,102738.97
2023-04-10T13:44:05.949Z,102736.34
2023-04-10T13:47:11.142Z,102730.47
2023-04-10T13:50:16.191Z,102715.88
2023-04-10T13:53:21.340Z,102709.94
2023-04-10T13:56:26.402Z,102709.06
2023-04-10T13:59:32.947Z,102713.34
2023-04-10T14:02:38.409Z,102699.75
2023-04-10T14:05:43.574Z,102714.16
2023-04-10T14:08:48.891Z,102712.47
2023-04-10T14:11:54.438Z,102707.25
2023-04-10T14:15:01.384Z,102708.16
2023-04-10T14:18:06.641Z,102702.25
2023-04-10T14:21:12.842Z,102701.28
2023-04-10T14:24:17.996Z,102705.50
2023-04-10T14:27:23.075Z,102703.72
2023-04-10T14:30:31.141Z,102692.72
2023-04-10T14:33:36.318Z,102699.53
2023-04-10T14:36:41.851Z,102682.53
2023-04-10T14:39:47.037Z,102674.88
2023-04-10T14:42:53.384Z,102680.03
2023-04-10T14:45:59.787Z,102683.34
2023-04-10T14:49:04.941Z,102676.47
2023-04-10T14:52:10.361Z,102667.09
2023-04-10T14:55:15.364Z,102660.19
2023-04-10T14:58:20.416Z,102652.53
2023-04-10T15:01:27.009Z,102653.41
2023-04-10T15:04:32.286Z,102654.19
2023-04-10T15:07:37.526Z,102654.97
2023-04-10T15:10:42.771Z,102642.22
2023-04-10T15:13:48.195Z,102640.56
2023-04-10T15:16:54.930Z,102627.81
2023-04-10T15:20:00.181Z,102618.34
2023-04-10T15:23:05.751Z,102630.22
2023-04-10T15:26:14.128Z,102613.97
2023-04-10T15:29:19.155Z,102607.84
2023-04-10T15:32:25.747Z,102597.66
2023-04-10T15:35:34.287Z,102586.59
2023-04-10T15:38:39.458Z,102592.50
2023-04-10T15:41:44.502Z,102582.16
2023-04-10T15:44:49.720Z,102580.44
2023-04-10T15:47:56.171Z,102567.69
2023-04-10T15:51:04.639Z,102566.00
2023-04-10T15:54:11.066Z,102567.66
2023-04-10T15:57:16.158Z,102570.19
2023-04-10T16:00:21.743Z,102553.22
2023-04-10T16:03:30.241Z,102564.94
2023-04-10T16:06:35.863Z,102547.88
2023-04-10T16:09:40.894Z,102552.00
2023-04-10T16:12:45.927Z,102537.69
2023-04-10T16:15:51.711Z,102538.53
2023-04-10T16:19:00.507Z,102535.13
2023-04-10T16:22:06.665Z,102523.28
2023-04-10T16:25:12.689Z,102517.38
2023-04-10T16:28:18.033Z,102508.84
2023-04-10T16:31:23.128Z,102523.97
2023-04-10T16:34:29.564Z,102509.50
2023-04-10T16:37:34.636Z,102495.09
2023-04-10T16:40:40.898Z,102492.53
2023-04-10T16:43:45.975Z,102484.78
2023-04-10T16:46:51.157Z,102494.94
2023-04-10T16:49:57.698Z,102484.63
2023-04-10T16:53:02.875Z,102484.44
2023-04-10T16:56:08.107Z,102482.78
2023-04-10T16:59:13.141Z,102485.22
2023-04-10T17:02:18.203Z,102476.66
2023-04-10T17:05:24.805Z,102487.56
2023-04-10T17:08:29.908Z,102485.69
2023-04-10T17:11:34.977Z,102483.09
2023-04-10T17:14:40.005Z,102468.44
2023-04-10T17:17:45.157Z,102473.38
2023-04-10T17:20:51.642Z,102471.69
2023-04-10T17:23:56.721Z,102459.72
2023-04-10T17:27:02.484Z,102462.94
2023-04-10T17:30:11.986Z,102462.94
2023-04-10T17:33:17.042Z,102452.63
2023-04-10T17:36:23.648Z,102453.22
2023-04-10T17:39:28.858Z,102443.91
2023-04-10T17:42:33.982Z,102444.50
2023-04-10T17:45:39.267Z,102437.78
2023-04-10T17:48:44.603Z,102431.75
2023-04-10T17:51:51.597Z,102427.25
2023-04-10T17:54:56.761Z,102430.63
2023-04-10T17:58:01.822Z,102434.78
2023-04-10T18:01:07.426Z,102417.75
2023-04-10T18:04:13.261Z,102425.88
2023-04-10T18:07:19.768Z,102420.66
2023-04-10T18:10:25.230Z,102419.66
2023-04-10T18:13:30.325Z,102412.81
2023-04-10T18:16:35.719Z,102411.97
2023-04-10T18:19:41.155Z,102412.59
2023-04-10T18:22:48.237Z,102401.56
2023-04-10T18:25:54.538Z,102402.25
2023-04-10T18:29:00.380Z,102398.09
2023-04-10T18:32:07.619Z,102389.50
2023-04-10T18:35:12.786Z,102390.94
2023-04-10T18:38:19.382Z,102388.25
2023-04-10T18:41:24.513Z,102378.78
2023-04-10T18:44:30.372Z,102390.38
2023-04-10T18:47:36.534Z,102385.78
2023-04-10T18:50:46.606Z,102382.25
2023-04-10T18:53:53.478Z,102392.44
2023-04-10T18:56:58.900Z,102383.81
2023-04-10T19:00:06.864Z,102377.00
2023-04-10T19:03:12.140Z,102370.94
2023-04-10T19:06:17.881Z,102371.66
2023-04-10T19:09:24.532Z,102368.28
2023-04-10T19:12:29.657Z,102376.63
2023-04-10T19:15:34.802Z,102371.38
2023-04-10T19:18:39.944Z,102366.94
2023-04-10T19:21:45.148Z,102363.44
2023-04-10T19:24:51.615Z,102365.13
2023-04-10T19:27:56.644Z,102355.97
2023-04-10T19:31:02.002Z,102360.00
2023-04-10T19:34:09.416Z,102358.16
2023-04-10T19:37:14.598Z,102346.34
2023-04-10T19:40:21.355Z,102352.22
2023-04-10T19:43:26.530Z,102334.44
2023-04-10T19:46:31.737Z,102338.56
2023-04-10T19:49:37.042Z,102333.41
2023-04-10T19:52:42.116Z,102326.59
2023-04-10T19:55:48.603Z,102320.41
2023-04-10T19:58:53.783Z,102317.72
2023-04-10T20:01:59.231Z,102309.31
2023-04-10T20:05:04.487Z,102301.78
2023-04-10T20:08:09.720Z,102299.16
2023-04-10T20:11:16.428Z,102288.22
2023-04-10T20:14:21.571Z,102280.72
2023-04-10T20:17:26.647Z,102272.13
2023-04-10T20:20:31.727Z,102267.78
2023-04-10T20:23:36.852Z,102266.88
2023-04-10T20:26:45.467Z,102264.22
2023-04-10T20:29:51.301Z,102249.78
2023-04-10T20:32:56.828Z,102251.38
2023-04-10T20:36:02.110Z,102240.22
2023-04-10T20:39:07.231Z,102236.00
2023-04-10T20:42:14.094Z,102237.66
2023-04-10T20:45:19.266Z,102237.53
2023-04-10T20:48:24.409Z,102226.56
2023-04-10T20:51:29.725Z,102223.09
2023-04-10T20:54:35.094Z,102216.41
2023-04-10T20:57:41.538Z,102215.25
2023-04-10T21:00:46.691Z,102206.09
2023-04-10T21:03:51.700Z,102193.75
2023-04-10T21:06:56.718Z,102191.88
2023-04-10T21:10:01.856Z,102187.41
2023-04-10T21:13:08.410Z,102177.25
2023-04-10T21:16:14.197Z,102176.44
2023-04-10T21:19:19.190Z,102169.69
2023-04-10T21:22:24.215Z,102169.94
2023-04-10T21:25:29.443Z,102160.47
2023-04-10T21:28:35.806Z,102159.50
2023-04-10T21:31:40.837Z,102151.00
2023-04-10T21:34:46.176Z,102143.47
2023-04-10T21:37:56.598Z,102145.06
2023-04-10T21:41:01.951Z,102137.50
2023-04-10T21:44:08.824Z,102131.47
2023-04-10T21:47:14.640Z,102129.59
2023-04-10T21:50:19.775Z,102122.69
2023-04-10T21:53:24.860Z,102120.78
2023-04-10T21:56:31.548Z,102129.16
2023-04-10T21:59:38.401Z,102124.69
2023-04-10T22:02:43.647Z,102116.28
2023-04-10T22:05:50.309Z,102115.25
2023-04-10T22:08:55.513Z,102118.28
2023-04-10T22:12:00.790Z,102113.47
2023-04-10T22:15:08.039Z,102117.75
2023-04-10T22:18:14.461Z,102116.41
2023-04-10T22:21:19.494Z,102106.31
2023-04-10T22:24:24.560Z,102108.00
2023-04-10T22:27:29.638Z,102102.13
2023-04-10T22:30:36.216Z,102096.97
2023-04-10T22:33:41.248Z,102095.84
2023-04-10T22:36:46.269Z,102096.22
2023-04-10T22:39:51.368Z,102096.34
2023-04-10T22:42:56.420Z,102093.78
2023-04-10T22:46:02.852Z,102081.59
2023-04-10T22:49:07.924Z,102078.38
2023-04-10T22:52:15.109Z,102078.41
2023-04-10T22:55:20.264Z,102062.59
2023-04-10T22:58:25.715Z,102062.56
2023-04-10T23:01:32.244Z,102062.56
2023-04-10T23:04:37.428Z,102051.56
2023-04-10T23:07:42.477Z,102041.44
2023-04-10T23:10:47.473Z,102043.97
2023-04-10T23:13:52.451Z,102037.94
2023-04-10T23:16:58.952Z,102033.59
2023-04-10T23:20:04.359Z,102036.69
2023-04-10T23:23:09.771Z,102023.31
2023-04-10T23:26:15.933Z,102019.69
2023-04-10T23:29:21.157Z,102023.06
2023-04-10T23:32:28.017Z,102022.28
2023-04-10T23:35:33.080Z,102012.06
2023-04-10T23:38:38.128Z,102011.22
2023-04-10T23:41:43.213Z,101989.19
2023-04-10T23:44:48.497Z,101997.56
2023-04-10T23:47:54.919Z,101988.34
2023-04-10T23:51:06.968Z,101980.72
2023-04-10T23:54:12.535Z,101979.47
2023-04-10T23:57:17.858Z,101982.91
